createdAt,value
2022-10-03T00:00:23.098Z,79.65
2022-10-03T00:02:09.287Z,79.81
2022-10-03T00:04:05.282Z,80.20
2022-10-03T00:05:57.433Z,80.47
2022-10-03T00:07:43.050Z,80.37
2022-10-03T00:09:53.181Z,80.73
2022-10-03T00:11:43.735Z,80.38
2022-10-03T00:13:59.718Z,80.48
2022-10-03T00:15:56.099Z,80.81
2022-10-03T00:17:43.717Z,80.86
2022-10-03T00:19:49.990Z,80.59
2022-10-03T00:21:39.239Z,80.75
2022-10-03T00:23:22.271Z,80.47
2022-10-03T00:25:22.611Z,80.50
2022-10-03T00:27:04.145Z,80.79
2022-10-03T00:29:02.233Z,80.61
2022-10-03T00:30:58.466Z,80.70
2022-10-03T00:32:46.624Z,80.36
2022-10-03T00:34:27.994Z,80.62
2022-10-03T00:36:09.041Z,81.30
2022-10-03T00:39:49.278Z,81.36
2022-10-03T00:41:54.831Z,81.16
2022-10-03T00:43:57.884Z,81.16
2022-10-03T00:45:55.925Z,81.14
2022-10-03T00:48:00.080Z,81.18
2022-10-03T00:49:36.029Z,81.45
2022-10-03T00:51:08.010Z,81.93
2022-10-03T00:53:06.033Z,81.81
2022-10-03T00:54:40.756Z,81.79
2022-10-03T00:56:41.649Z,81.85
2022-10-03T00:58:34.856Z,81.93
2022-10-03T01:00:31.566Z,81.81
2022-10-03T01:02:43.060Z,81.51
2022-10-03T01:04:43.977Z,81.71
2022-10-03T01:06:22.066Z,81.88
2022-10-03T01:08:03.343Z,81.94
2022-10-03T01:09:59.389Z,81.98
2022-10-03T01:11:31.319Z,81.76
2022-10-03T01:13:06.641Z,81.95
2022-10-03T01:14:49.427Z,82.01
2022-10-03T01:16:31.566Z,82.13
2022-10-03T01:18:09.847Z,82.18
2022-10-03T01:19:49.005Z,81.64
2022-10-03T01:22:02.000Z,81.43
2022-10-03T01:24:01.764Z,81.21
2022-10-03T01:25:36.446Z,80.88
2022-10-03T01:27:11.119Z,80.49
2022-10-03T01:29:12.665Z,80.38
2022-10-03T01:30:50.458Z,80.17
2022-10-03T01:32:29.305Z,80.16
2022-10-03T01:34:05.284Z,80.54
2022-10-03T01:35:48.408Z,79.79
2022-10-03T01:37:32.745Z,79.18
2022-10-03T01:39:13.476Z,78.97
2022-10-03T01:41:02.693Z,78.54
2022-10-03T01:42:51.645Z,78.08
2022-10-03T01:44:31.895Z,77.68
2022-10-03T01:46:18.643Z,77.53
2022-10-03T01:47:55.731Z,77.19
2022-10-03T01:49:44.076Z,75.79
2022-10-03T01:51:50.463Z,76.79
2022-10-03T01:53:38.956Z,77.19
2022-10-03T01:55:32.391Z,76.57
2022-10-03T01:57:19.257Z,76.59
2022-10-03T01:59:06.764Z,76.82
2022-10-03T02:01:01.861Z,76.85
2022-10-03T02:03:16.095Z,77.16
2022-10-03T02:05:03.690Z,76.66
2022-10-03T02:06:40.776Z,76.42
2022-10-03T02:09:01.261Z,76.75
2022-10-03T02:11:03.800Z,77.37
2022-10-03T02:12:41.187Z,77.36
2022-10-03T02:14:41.594Z,77.20
2022-10-03T02:16:34.651Z,77.17
2022-10-03T02:18:38.782Z,77.26
2022-10-03T02:20:23.979Z,76.97
2022-10-03T02:21:58.083Z,76.70
2022-10-03T02:23:32.616Z,76.56
2022-10-03T02:25:45.993Z,76.69
2022-10-03T02:27:43.105Z,76.90
2022-10-03T02:29:20.839Z,76.74
2022-10-03T02:31:07.332Z,76.53
2022-10-03T02:33:10.755Z,76.41
2022-10-03T02:35:10.740Z,76.24
2022-10-03T02:37:08.316Z,76.25
2022-10-03T02:39:02.496Z,76.11
2022-10-03T02:41:12.192Z,75.91
2022-10-03T02:43:12.679Z,76.02
2022-10-03T02:45:16.908Z,75.76
2022-10-03T02:47:13.889Z,75.37
2022-10-03T02:48:54.633Z,76.54
2022-10-03T02:50:48.077Z,76.57
2022-10-03T02:52:53.922Z,76.97
2022-10-03T02:55:08.091Z,76.79
2022-10-03T02:57:04.057Z,76.79
2022-10-03T02:58:42.132Z,76.75
2022-10-03T03:00:22.078Z,75.80
2022-10-03T03:04:29.040Z,73.35
2022-10-03T03:06:24.937Z,71.92
2022-10-03T03:08:22.061Z,71.29
2022-10-03T03:10:33.114Z,71.72
2022-10-03T03:12:43.530Z,73.97
2022-10-03T03:14:49.212Z,74.82
2022-10-03T03:16:33.447Z,75.03
2022-10-03T03:18:26.466Z,75.26
2022-10-03T03:20:17.678Z,75.20
2022-10-03T03:22:06.165Z,75.47
2022-10-03T03:23:41.894Z,75.58
2022-10-03T03:25:35.171Z,75.75
2022-10-03T03:27:38.000Z,76.21
2022-10-03T03:29:38.509Z,76.18
2022-10-03T03:31:45.537Z,75.89
2022-10-03T03:33:39.272Z,76.33
2022-10-03T03:35:34.174Z,75.66
2022-10-03T03:37:21.982Z,75.38
2022-10-03T03:39:11.895Z,76.05
2022-10-03T03:40:59.276Z,76.36
2022-10-03T03:43:11.684Z,76.90
2022-10-03T03:45:07.583Z,77.68
2022-10-03T03:47:04.113Z,77.44
2022-10-03T03:48:45.840Z,78.02
2022-10-03T03:50:40.143Z,78.17
2022-10-03T03:52:21.371Z,78.68
2022-10-03T03:54:08.768Z,78.21
2022-10-03T03:55:50.192Z,78.55
2022-10-03T03:57:46.130Z,78.43
2022-10-03T03:59:33.698Z,78.06
2022-10-03T04:01:24.661Z,78.61
2022-10-03T04:03:09.692Z,79.00
2022-10-03T04:04:56.657Z,79.34
2022-10-03T04:06:36.479Z,79.21
2022-10-03T04:08:26.966Z,79.17
2022-10-03T04:10:15.410Z,79.74
2022-10-03T04:14:05.767Z,80.12
2022-10-03T04:15:50.827Z,79.44
2022-10-03T04:18:13.268Z,79.60
2022-10-03T04:20:04.836Z,79.84
2022-10-03T04:21:48.007Z,79.41
2022-10-03T04:24:00.925Z,79.50
2022-10-03T04:25:38.725Z,79.55
2022-10-03T04:27:25.929Z,79.29
2022-10-03T04:29:20.101Z,79.63
2022-10-03T04:31:24.559Z,79.72
2022-10-03T04:33:21.735Z,80.08
2022-10-03T04:35:31.437Z,79.80
2022-10-03T04:37:25.927Z,80.00
2022-10-03T04:38:58.472Z,79.44
2022-10-03T04:41:00.661Z,79.94
2022-10-03T04:43:11.850Z,80.15
2022-10-03T04:46:55.915Z,79.93
2022-10-03T04:48:39.455Z,79.58
2022-10-03T04:50:31.542Z,78.83
2022-10-03T04:52:03.527Z,79.53
2022-10-03T04:53:48.348Z,79.90
2022-10-03T04:55:51.095Z,79.87
2022-10-03T04:57:43.596Z,79.55
2022-10-03T04:59:40.414Z,79.76
2022-10-03T05:01:18.685Z,79.79
2022-10-03T05:03:15.353Z,79.50
2022-10-03T05:05:07.821Z,78.81
2022-10-03T05:07:12.295Z,79.64
2022-10-03T05:09:07.587Z,79.99
2022-10-03T05:10:39.884Z,79.63
2022-10-03T05:12:35.825Z,79.47
2022-10-03T05:14:22.745Z,78.95
2022-10-03T05:16:30.164Z,78.36
2022-10-03T05:18:15.023Z,78.17
2022-10-03T05:20:17.842Z,77.76
2022-10-03T05:21:59.341Z,77.30
2022-10-03T05:23:53.406Z,76.32
2022-10-03T05:25:48.478Z,76.79
2022-10-03T05:27:31.466Z,77.17
2022-10-03T05:29:38.628Z,77.32
2022-10-03T05:31:29.697Z,77.71
2022-10-03T05:33:25.409Z,77.11
2022-10-03T05:35:43.687Z,76.85
2022-10-03T05:37:35.533Z,75.81
2022-10-03T05:39:27.660Z,76.52
2022-10-03T05:40:59.967Z,77.27
2022-10-03T05:42:39.202Z,77.35
2022-10-03T05:44:18.249Z,77.61
2022-10-03T05:46:04.687Z,77.43
2022-10-03T05:47:55.851Z,76.41
2022-10-03T05:49:36.656Z,76.18
2022-10-03T05:51:22.811Z,75.55
2022-10-03T05:53:22.743Z,74.48
2022-10-03T05:55:27.184Z,74.20
2022-10-03T05:57:01.879Z,73.75
2022-10-03T05:58:42.123Z,73.95
2022-10-03T06:00:25.541Z,73.58
2022-10-03T06:02:54.731Z,74.08
2022-10-03T06:04:45.497Z,73.88
2022-10-03T06:06:34.005Z,74.17
2022-10-03T06:08:26.955Z,74.73
2022-10-03T06:10:43.033Z,75.82
2022-10-03T06:12:33.520Z,76.31
2022-10-03T06:15:58.860Z,76.84
2022-10-03T06:18:18.387Z,76.37
2022-10-03T06:20:22.830Z,76.10
2022-10-03T06:22:32.451Z,75.42
2022-10-03T06:24:25.815Z,73.75
2022-10-03T06:26:21.336Z,72.39
2022-10-03T06:28:05.184Z,71.89
2022-10-03T06:29:46.108Z,71.83
2022-10-03T06:31:40.072Z,72.07
2022-10-03T06:33:30.922Z,71.92
2022-10-03T06:35:31.385Z,71.01
2022-10-03T06:37:29.680Z,71.08
2022-10-03T06:39:16.925Z,71.17
2022-10-03T06:41:07.323Z,71.64
2022-10-03T06:42:57.619Z,74.48
2022-10-03T06:46:27.885Z,76.17
2022-10-03T06:48:18.908Z,76.78
2022-10-03T06:50:09.566Z,76.92
2022-10-03T06:52:12.757Z,77.32
2022-10-03T06:54:06.868Z,77.27
2022-10-03T06:55:50.165Z,76.73
2022-10-03T06:58:15.556Z,76.87
2022-10-03T07:00:13.871Z,76.95
2022-10-03T07:01:54.849Z,76.81
2022-10-03T07:04:12.230Z,77.98
2022-10-03T07:05:56.307Z,78.36
2022-10-03T07:08:07.632Z,78.66
2022-10-03T07:09:54.768Z,79.01
2022-10-03T07:11:44.522Z,79.40
2022-10-03T07:15:57.762Z,79.63
2022-10-03T07:17:28.603Z,79.77
2022-10-03T07:19:12.830Z,80.27
2022-10-03T07:21:16.988Z,80.69
2022-10-03T07:22:55.271Z,80.82
2022-10-03T07:24:43.778Z,81.57
2022-10-03T07:26:34.784Z,82.15
2022-10-03T07:28:48.862Z,82.37
2022-10-03T07:30:22.541Z,83.32
2022-10-03T07:32:10.623Z,83.52
2022-10-03T07:34:04.493Z,83.92
2022-10-03T07:36:33.127Z,84.22
2022-10-03T07:38:58.684Z,84.35
2022-10-03T07:40:54.808Z,84.60
2022-10-03T07:42:47.823Z,84.80
2022-10-03T07:44:56.047Z,85.00
2022-10-03T07:47:09.967Z,85.37
2022-10-03T07:49:00.164Z,85.91
2022-10-03T07:51:06.570Z,86.03
2022-10-03T07:53:02.340Z,86.01
2022-10-03T07:54:46.377Z,86.42
2022-10-03T07:56:43.230Z,86.68
2022-10-03T07:58:26.827Z,87.14
2022-10-03T08:00:23.104Z,86.75
2022-10-03T08:02:36.809Z,86.49
2022-10-03T08:04:59.679Z,86.70
2022-10-03T08:06:47.306Z,86.64
2022-10-03T08:08:38.547Z,85.99
2022-10-03T08:10:36.222Z,86.01
2022-10-03T08:12:25.853Z,85.98
2022-10-03T08:14:12.432Z,85.89
2022-10-03T08:16:12.277Z,85.87
2022-10-03T08:17:47.348Z,85.61
2022-10-03T08:19:58.021Z,85.52
2022-10-03T08:21:30.335Z,85.95
2022-10-03T08:23:26.718Z,85.36
2022-10-03T08:25:35.654Z,85.24
2022-10-03T08:27:13.350Z,85.35
2022-10-03T08:29:29.089Z,85.36
2022-10-03T08:31:09.917Z,85.78
2022-10-03T08:33:14.220Z,85.71
2022-10-03T08:35:19.909Z,85.90
2022-10-03T08:37:04.115Z,85.80
2022-10-03T08:38:59.140Z,85.51
2022-10-03T08:40:56.877Z,85.62
2022-10-03T08:42:58.325Z,85.82
2022-10-03T08:44:42.774Z,86.21
2022-10-03T08:46:38.172Z,86.33
2022-10-03T08:48:27.071Z,86.14
2022-10-03T08:50:17.898Z,86.50
2022-10-03T08:52:00.955Z,86.85
2022-10-03T08:53:51.919Z,87.04
2022-10-03T08:55:32.883Z,87.52
2022-10-03T08:57:29.306Z,87.54
2022-10-03T08:59:48.892Z,87.82
2022-10-03T09:01:35.306Z,87.68
2022-10-03T09:03:34.410Z,87.70
2022-10-03T09:05:43.901Z,87.62
2022-10-03T09:07:37.868Z,87.07
2022-10-03T09:10:07.996Z,86.73
2022-10-03T09:12:03.139Z,86.95
2022-10-03T09:16:50.066Z,86.52
2022-10-03T09:18:43.468Z,85.38
2022-10-03T09:20:53.547Z,85.30
2022-10-03T09:22:49.905Z,84.83
2022-10-03T09:24:25.202Z,84.75
2022-10-03T09:26:24.497Z,84.25
2022-10-03T09:28:41.649Z,83.27
2022-10-03T09:30:26.804Z,83.58
2022-10-03T09:32:35.372Z,83.59
2022-10-03T09:34:39.809Z,83.47
2022-10-03T09:36:54.182Z,82.69
2022-10-03T09:38:47.609Z,81.92
2022-10-03T09:40:38.486Z,80.28
2022-10-03T09:42:41.783Z,78.06
2022-10-03T09:44:29.179Z,77.17
2022-10-03T09:46:07.208Z,77.24
2022-10-03T09:47:57.822Z,76.57
2022-10-03T09:50:01.826Z,75.71
2022-10-03T09:52:09.619Z,74.98
2022-10-03T09:54:03.085Z,73.53
2022-10-03T09:55:53.634Z,72.72
2022-10-03T09:57:58.911Z,73.41
2022-10-03T09:59:52.658Z,72.68
2022-10-03T10:01:34.115Z,71.92
2022-10-03T10:03:14.972Z,72.43
2022-10-03T10:05:24.688Z,71.44
2022-10-03T10:07:02.696Z,71.54
2022-10-03T10:08:48.933Z,71.24
2022-10-03T10:10:48.609Z,71.88
2022-10-03T10:12:46.125Z,71.70
2022-10-03T10:14:53.612Z,71.41
2022-10-03T10:16:48.576Z,70.87
2022-10-03T10:18:26.614Z,70.49
2022-10-03T10:20:07.838Z,70.97
2022-10-03T10:22:03.736Z,69.10
2022-10-03T10:23:43.999Z,68.72
2022-10-03T10:25:37.187Z,68.82
2022-10-03T10:27:28.782Z,68.47
2022-10-03T10:29:22.530Z,67.41
2022-10-03T10:31:25.860Z,65.92
2022-10-03T10:33:28.673Z,65.37
2022-10-03T10:35:17.173Z,65.95
2022-10-03T10:37:26.440Z,66.63
2022-10-03T10:39:07.388Z,63.53
2022-10-03T10:41:05.364Z,63.40
2022-10-03T10:43:08.269Z,63.01
2022-10-03T10:45:11.317Z,59.48
2022-10-03T10:47:13.470Z,60.27
2022-10-03T10:49:23.024Z,59.83
2022-10-03T10:51:12.652Z,59.22
2022-10-03T10:52:48.259Z,59.39
2022-10-03T10:54:55.639Z,56.97
2022-10-03T10:56:46.389Z,58.62
2022-10-03T10:58:41.700Z,57.31
2022-10-03T11:00:16.649Z,56.96
2022-10-03T11:02:07.293Z,56.75
2022-10-03T11:04:07.421Z,55.80
2022-10-03T11:05:57.820Z,55.95
2022-10-03T11:07:53.229Z,53.61
2022-10-03T11:09:42.996Z,54.31
2022-10-03T11:11:42.579Z,53.35
2022-10-03T11:13:52.632Z,51.64
2022-10-03T11:15:59.077Z,52.53
2022-10-03T11:17:55.960Z,49.82
2022-10-03T11:19:53.898Z,49.71
2022-10-03T11:22:04.957Z,49.29
2022-10-03T11:24:04.483Z,49.52
2022-10-03T11:25:51.496Z,49.68
2022-10-03T11:27:51.426Z,51.62
2022-10-03T11:29:54.422Z,48.47
2022-10-03T11:31:28.418Z,47.93
2022-10-03T11:33:57.608Z,49.40
2022-10-03T11:35:44.730Z,50.15
2022-10-03T11:37:35.573Z,50.99
2022-10-03T11:39:31.888Z,49.73
2022-10-03T11:41:27.091Z,51.18
2022-10-03T11:43:31.243Z,48.82
2022-10-03T11:45:05.691Z,48.15
2022-10-03T11:46:47.922Z,48.39
2022-10-03T11:48:40.094Z,48.50
2022-10-03T11:50:23.855Z,48.93
2022-10-03T11:51:55.850Z,47.76
2022-10-03T11:53:36.507Z,46.74
2022-10-03T11:55:26.294Z,46.10
2022-10-03T11:57:37.179Z,45.54
2022-10-03T11:59:13.101Z,46.13
2022-10-03T12:00:46.427Z,46.32
2022-10-03T12:02:38.276Z,46.64
2022-10-03T12:04:20.687Z,44.93
2022-10-03T12:06:58.557Z,46.51
2022-10-03T12:08:54.205Z,44.18
2022-10-03T12:10:38.607Z,44.09
2022-10-03T12:12:19.507Z,45.01
2022-10-03T13:32:41.389Z,39.51
2022-10-03T13:34:18.997Z,39.75
2022-10-03T13:36:10.211Z,39.49
2022-10-03T13:38:17.638Z,39.72
2022-10-03T13:39:54.588Z,39.50
2022-10-03T13:41:49.568Z,39.89
2022-10-03T13:43:36.162Z,39.28
2022-10-03T13:45:21.463Z,40.72
2022-10-03T13:47:03.554Z,39.91
2022-10-03T13:48:36.433Z,40.08
2022-10-03T13:50:17.128Z,39.71
2022-10-03T13:51:54.768Z,39.92
2022-10-03T13:53:37.137Z,40.58
2022-10-03T13:55:55.062Z,39.36
2022-10-03T13:57:58.992Z,39.16
2022-10-03T13:59:43.323Z,39.09
2022-10-03T14:01:18.518Z,39.81
2022-10-03T14:03:14.741Z,39.85
2022-10-03T14:04:47.276Z,39.52
2022-10-03T14:08:03.240Z,39.58
2022-10-03T14:09:35.496Z,40.26
2022-10-03T14:11:24.528Z,40.23
2022-10-03T14:13:13.918Z,40.10
2022-10-03T14:14:46.186Z,40.22
2022-10-03T14:16:31.754Z,40.14
2022-10-03T14:18:18.705Z,40.87
2022-10-03T14:19:54.027Z,41.25
2022-10-03T14:21:45.296Z,41.28
2022-10-03T14:23:33.689Z,41.96
2022-10-03T14:25:05.931Z,42.51
2022-10-03T14:27:08.434Z,41.93
2022-10-03T14:28:52.693Z,42.39
2022-10-03T14:31:05.134Z,43.43
2022-10-03T14:33:00.225Z,43.96
2022-10-03T14:35:01.865Z,43.91
2022-10-03T14:36:39.776Z,43.53
2022-10-03T14:38:59.908Z,43.47
2022-10-03T14:40:50.170Z,42.65
2022-10-03T14:42:27.986Z,41.68
2022-10-03T14:44:05.508Z,41.79
2022-10-03T14:45:49.525Z,41.40
2022-10-03T14:47:22.589Z,42.54
2022-10-03T14:48:59.930Z,42.73
2022-10-03T14:50:32.559Z,43.56
2022-10-03T14:52:09.843Z,42.63
2022-10-03T14:53:56.918Z,42.77
2022-10-03T14:55:38.886Z,42.55
2022-10-03T14:57:58.725Z,42.81
2022-10-03T14:59:35.292Z,42.96
2022-10-03T15:01:19.715Z,42.97
2022-10-03T15:02:51.935Z,44.40
2022-10-03T15:04:44.224Z,44.27
2022-10-03T15:06:38.210Z,43.71
2022-10-03T15:08:16.540Z,44.34
2022-10-03T15:09:50.765Z,45.27
2022-10-03T15:11:27.671Z,44.95
2022-10-03T15:13:07.566Z,44.90
2022-10-03T15:14:47.679Z,45.46
2022-10-03T15:16:22.027Z,45.07
2022-10-03T15:18:00.790Z,45.30
2022-10-03T15:19:48.307Z,45.59
2022-10-03T15:21:21.165Z,45.69
2022-10-03T15:22:57.360Z,46.30
2022-10-03T15:24:32.166Z,46.69
2022-10-03T15:26:09.784Z,46.67
2022-10-03T15:27:42.791Z,46.92
2022-10-03T15:29:17.849Z,47.58
2022-10-03T15:30:52.483Z,48.40
2022-10-03T15:32:36.790Z,47.78
2022-10-03T15:34:18.122Z,47.51
2022-10-03T15:35:55.460Z,47.86
2022-10-03T15:37:37.726Z,47.28
2022-10-03T15:39:27.598Z,47.73
2022-10-03T15:41:32.213Z,48.08
2022-10-03T15:43:10.195Z,47.89
2022-10-03T15:45:13.210Z,48.55
2022-10-03T15:46:45.608Z,48.42
2022-10-03T15:48:22.071Z,49.10
2022-10-03T15:49:59.983Z,49.24
2022-10-03T15:51:34.942Z,49.20
2022-10-03T15:53:35.140Z,49.30
2022-10-03T15:55:11.791Z,49.49
2022-10-03T15:56:46.770Z,49.57
2022-10-03T15:58:36.894Z,49.80
2022-10-03T16:00:31.662Z,50.58
2022-10-03T16:02:17.300Z,50.46
2022-10-03T16:03:56.124Z,50.54
2022-10-03T16:05:28.968Z,50.45
2022-10-03T16:07:10.775Z,50.39
2022-10-03T16:09:08.304Z,50.76
2022-10-03T16:10:44.054Z,50.55
2022-10-03T16:12:47.118Z,50.92
2022-10-03T16:14:25.547Z,51.24
2022-10-03T16:16:03.987Z,51.28
2022-10-03T16:17:47.163Z,51.38
2022-10-03T16:19:27.872Z,51.54
2022-10-03T16:21:03.100Z,51.74
2022-10-03T16:22:44.251Z,51.77
2022-10-03T16:24:25.118Z,52.09
2022-10-03T16:26:04.420Z,52.75
2022-10-03T16:27:41.911Z,53.01
2022-10-03T16:29:18.252Z,53.50
2022-10-03T16:31:11.777Z,53.64
2022-10-03T16:32:55.610Z,54.01
2022-10-03T16:34:31.411Z,56.30
2022-10-03T16:36:06.809Z,58.17
2022-10-03T16:37:42.225Z,58.94
2022-10-03T16:41:20.911Z,60.47
2022-10-03T16:42:57.901Z,60.82
2022-10-03T16:44:48.339Z,60.98
2022-10-03T16:46:20.953Z,61.05
2022-10-03T16:48:13.962Z,61.93
2022-10-03T16:50:22.812Z,62.16
2022-10-03T16:52:02.510Z,62.73
2022-10-03T16:53:35.244Z,63.88
2022-10-03T16:55:28.758Z,64.23
2022-10-03T16:57:04.140Z,64.35
2022-10-03T16:58:42.153Z,63.62
2022-10-03T17:00:18.153Z,62.58
2022-10-03T17:01:51.481Z,61.48
2022-10-03T17:03:24.149Z,60.37
2022-10-03T17:05:04.692Z,59.62
2022-10-03T17:06:38.680Z,59.43
2022-10-03T17:08:36.950Z,59.21
2022-10-03T17:10:04.166Z,57.88
2022-10-03T17:11:38.229Z,57.69
2022-10-03T17:13:20.168Z,57.46
2022-10-03T17:14:55.217Z,57.40
2022-10-03T17:16:45.321Z,56.93
2022-10-03T17:18:25.626Z,56.67
2022-10-03T17:20:01.092Z,56.50
2022-10-03T17:21:33.918Z,56.46
2022-10-03T17:23:27.866Z,56.67
2022-10-03T17:25:30.492Z,56.50
2022-10-03T17:27:07.754Z,56.75
2022-10-03T17:28:52.723Z,56.33
2022-10-03T17:30:37.266Z,56.80
2022-10-03T17:32:22.902Z,56.67
2022-10-03T17:34:29.556Z,56.21
2022-10-03T17:36:27.840Z,55.98
2022-10-03T17:40:16.909Z,56.01
2022-10-03T17:41:50.986Z,55.97
2022-10-03T17:43:38.921Z,55.92
2022-10-03T17:45:21.431Z,55.85
2022-10-03T17:47:06.025Z,55.72
2022-10-03T17:48:42.056Z,55.83
2022-10-03T17:50:23.728Z,55.60
2022-10-03T17:51:56.932Z,55.82
2022-10-03T17:53:38.806Z,55.91
2022-10-03T17:55:27.286Z,55.86
2022-10-03T17:57:11.522Z,55.70
2022-10-03T17:58:50.397Z,55.68
2022-10-03T18:00:25.222Z,55.76
2022-10-03T18:02:05.735Z,55.81
2022-10-03T18:03:59.549Z,55.88
2022-10-03T18:05:35.191Z,56.36
2022-10-03T18:07:15.743Z,55.98
2022-10-03T18:08:50.334Z,55.88
2022-10-03T18:10:26.139Z,56.26
2022-10-03T18:12:42.728Z,55.87
2022-10-03T18:14:56.774Z,56.18
2022-10-03T18:16:37.402Z,56.52
2022-10-03T18:18:24.661Z,56.28
2022-10-03T18:20:36.332Z,55.45
2022-10-03T18:22:40.747Z,55.52
2022-10-03T18:28:15.887Z,55.56
2022-10-03T18:30:06.508Z,55.56
2022-10-03T18:31:46.454Z,55.60
2022-10-03T18:33:42.847Z,55.56
2022-10-03T18:35:23.858Z,55.47
2022-10-03T18:36:56.904Z,55.38
2022-10-03T18:38:30.710Z,55.39
2022-10-03T18:40:03.888Z,55.44
2022-10-03T18:41:36.031Z,55.40
2022-10-03T18:43:22.491Z,55.44
2022-10-03T18:44:56.510Z,55.21
2022-10-03T18:46:31.631Z,55.35
2022-10-03T18:48:20.490Z,55.02
2022-10-03T18:50:27.792Z,54.90
2022-10-03T18:52:34.325Z,55.08
2022-10-03T18:54:41.623Z,55.14
2022-10-03T18:56:20.645Z,55.09
2022-10-03T18:58:18.442Z,54.72
2022-10-03T18:59:57.424Z,54.85
2022-10-03T19:01:55.097Z,54.76
2022-10-03T19:03:50.402Z,54.71
2022-10-03T19:05:56.273Z,54.65
2022-10-03T19:07:31.617Z,54.63
2022-10-03T19:09:03.968Z,54.40
2022-10-03T19:10:43.238Z,54.18
2022-10-03T19:12:22.736Z,54.29
2022-10-03T19:14:05.197Z,54.40
2022-10-03T19:16:06.778Z,53.97
2022-10-03T19:17:41.981Z,54.17
2022-10-03T19:19:25.956Z,53.77
2022-10-03T19:21:00.907Z,53.80
2022-10-03T19:23:03.482Z,53.71
2022-10-03T19:24:57.242Z,53.85
2022-10-03T19:26:35.537Z,53.74
2022-10-03T19:28:14.133Z,53.71
2022-10-03T19:29:49.180Z,53.95
2022-10-03T19:31:25.584Z,53.67
2022-10-03T19:33:07.784Z,53.92
2022-10-03T19:34:42.031Z,53.68
2022-10-03T19:36:18.138Z,53.75
2022-10-03T19:38:01.296Z,53.44
2022-10-03T19:39:34.035Z,53.73
2022-10-03T19:41:34.931Z,53.20
2022-10-03T19:43:14.704Z,53.09
2022-10-03T19:44:46.790Z,53.06
2022-10-03T19:46:43.706Z,53.08
2022-10-03T19:48:17.179Z,53.00
2022-10-03T19:50:03.877Z,53.11
2022-10-03T19:51:36.046Z,53.29
2022-10-03T19:53:12.576Z,53.03
2022-10-03T19:54:50.606Z,53.11
2022-10-03T19:56:25.034Z,53.51
2022-10-03T23:26:23.080Z,54.92
2022-10-03T23:28:16.190Z,55.03
2022-10-03T23:30:12.908Z,55.07
2022-10-03T23:31:53.855Z,55.06
2022-10-03T23:33:32.798Z,55.49
2022-10-03T23:35:14.335Z,55.52
2022-10-03T23:37:11.825Z,55.41
2022-10-03T23:38:44.123Z,56.02
2022-10-03T23:40:29.777Z,56.27
2022-10-03T23:42:18.903Z,56.48
2022-10-03T23:43:56.139Z,57.32
2022-10-03T23:45:29.633Z,57.23
2022-10-03T23:47:02.205Z,57.43
2022-10-03T23:48:44.521Z,57.26
2022-10-03T23:50:24.000Z,57.42
2022-10-03T23:51:57.224Z,57.52
2022-10-03T23:53:31.421Z,57.81
2022-10-03T23:56:41.980Z,57.51
2022-10-03T23:58:23.056Z,57.64
2022-10-03T23:59:55.015Z,57.51
